MDST/STI METAR and TAF weather

Enter ICAO airport designator
Station Type Date Time Source
MDST METAR 2019/04/25 17:00 UTC NOAA

MDST 251700Z 13010KT 9999 FEW022 30/19 Q1015


Station Type Date Time Source
MDST Decoded METAR 2019/04/25 17:00 UTC NOAA

Santiago, Dominican Republic (MDST) 19-27N 070-42W
Apr 25, 2019 - 01:00 PM EDT / 2019.04.25 1700 UTC
Wind: from the SE (130 degrees) at 12 MPH (10 KT):0
Visibility: greater than 7 mile(s):0
Sky conditions: mostly clear
Temperature: 86 F (30 C)
Dew Point: 66 F (19 C)
Relative Humidity: 51%
Pressure (altimeter): 29.97 in. Hg (1015 hPa)
ob: MDST 251700Z 13010KT 9999 FEW022 30/19 Q1015
cycle: 17

Station Type Date Time Source
MDST TAF 2019/04/25 18:09 UTC NOAA

TAF MDST 251600Z 2518/2618 11008KT 9999 FEW022

Example: see airport list